Sacramento, California
Traffic Map
Current Weather Conditions
Sacramento, California
Clear
Clear
61°
Feels Like: 61°
Wind Chill: 61° Ceiling: Unl
Heat Index: 61° Visibility: 10mi
Dew Point: 57° Wind: 5mph
Humidity: 87% Direction: 200° (SSW)
Pressure: 29.88in Gusts: 0mph
Raw Report DataKSAC 241353Z 20004KT 10SM CLR 16/14 A2988 RMK AO2 SLP116 T01610139
Traffic Incident Summary
Active as of:
Severity:
Category:
InformationThere was an issue retrieving the traffic information for this location. Please try a different location or try again shortly.
Advertisements
Track Severe Weather on mobile